CYYJ/YYJ METAR and TAF weather

Enter ICAO airport designator
Station Type Date Time Source
CYYJ METAR 2020/02/20 23:00 UTC NOAA

CYYJ 202300Z 10005KT 30SM FEW250 09/01 A3024 RMK CI1 CI TR SLP243


Station Type Date Time Source
CYYJ Decoded METAR 2020/02/20 23:00 UTC NOAA

Victoria Int. Airport, B. C., Canada (CYYJ) 48-39N 123-26W 19M
Feb 20, 2020 - 06:00 PM EST / 2020.02.20 2300 UTC
Wind: from the E (100 degrees) at 6 MPH (5 KT):0
Visibility: 30 mile(s):0
Sky conditions: mostly clear
Temperature: 48 F (9 C)
Dew Point: 33 F (1 C)
Relative Humidity: 57%
Pressure (altimeter): 30.24 in. Hg (1024 hPa)
ob: CYYJ 202300Z 10005KT 30SM FEW250 09/01 A3024 RMK CI1 CI TR SLP243
cycle: 23

Station Type Date Time Source
CYYJ TAF 2020/02/20 18:42 UTC NOAA

TAF TAF CYYJ 201738Z 2018/2118 29006KT P6SM FEW240
BECMG 2020/2022 04006KT
BECMG 2101/2103 VRB03KT
FM211200 25005KT P6SM SCT200
RMK NXT FCST BY 210000Z

Example: see airport list